createdAt,value
2023-03-02T00:01:09.494Z,44.10
2023-03-02T00:03:39.895Z,43.20
2023-03-02T00:06:09.029Z,43.10
2023-03-02T00:08:36.301Z,43.10
2023-03-02T00:11:03.122Z,44.00
2023-03-02T00:13:30.309Z,42.93
2023-03-02T00:15:57.225Z,43.50
2023-03-02T00:18:24.260Z,45.33
2023-03-02T00:20:53.479Z,45.80
2023-03-02T00:23:22.708Z,44.57
2023-03-02T00:25:49.503Z,45.63
2023-03-02T00:28:18.854Z,46.73
2023-03-02T00:30:45.705Z,45.03
2023-03-02T00:33:12.501Z,46.27
2023-03-02T00:35:40.326Z,44.70
2023-03-02T00:38:07.439Z,46.17
2023-03-02T00:40:36.719Z,45.90
2023-03-02T00:43:03.786Z,45.43
2023-03-02T00:45:30.669Z,46.87
2023-03-02T00:47:59.909Z,45.47
2023-03-02T00:50:26.657Z,47.17
2023-03-02T00:52:53.412Z,44.83
2023-03-02T00:55:22.841Z,47.60
2023-03-02T00:57:56.014Z,44.47
2023-03-02T01:00:23.245Z,45.53
2023-03-02T01:02:53.178Z,44.03
2023-03-02T01:05:20.058Z,43.33
2023-03-02T01:07:46.991Z,44.93
2023-03-02T01:10:16.920Z,46.70
2023-03-02T01:12:48.470Z,46.10
2023-03-02T01:15:19.898Z,46.27
2023-03-02T01:17:46.825Z,44.77
2023-03-02T01:20:13.902Z,44.53
2023-03-02T01:22:40.750Z,45.33
2023-03-02T01:25:07.894Z,45.03
2023-03-02T01:27:34.645Z,43.17
2023-03-02T01:30:03.810Z,44.77
2023-03-02T01:32:35.206Z,45.77
2023-03-02T01:35:01.979Z,43.47
2023-03-02T01:37:28.753Z,43.40
2023-03-02T01:39:55.550Z,44.93
2023-03-02T01:42:24.804Z,44.33
2023-03-02T01:44:57.100Z,44.43
2023-03-02T01:47:26.718Z,42.00
2023-03-02T01:49:57.564Z,42.50
2023-03-02T01:52:24.430Z,43.03
2023-03-02T01:54:51.882Z,43.80
2023-03-02T01:57:23.276Z,40.77
2023-03-02T01:59:51.022Z,36.37
2023-03-02T02:02:22.327Z,35.77
2023-03-02T02:04:49.130Z,35.90
2023-03-02T02:07:15.978Z,35.87
2023-03-02T02:09:47.385Z,36.13
2023-03-02T02:12:18.193Z,34.90
2023-03-02T02:14:45.061Z,32.87
2023-03-02T02:17:12.433Z,31.47
2023-03-02T02:19:50.728Z,32.53
2023-03-02T02:22:22.506Z,31.73
2023-03-02T02:24:57.373Z,30.30
2023-03-02T02:27:29.822Z,30.87
2023-03-02T02:29:58.276Z,29.77
2023-03-02T02:32:28.284Z,30.53
2023-03-02T02:35:11.320Z,29.23
2023-03-02T02:37:42.821Z,30.47
2023-03-02T02:40:21.218Z,28.43
2023-03-02T02:42:48.856Z,28.37
2023-03-02T02:45:24.592Z,29.30
2023-03-02T02:47:51.521Z,26.23
2023-03-02T02:50:20.813Z,26.77
2023-03-02T02:52:49.380Z,26.97
2023-03-02T02:55:16.627Z,25.37
2023-03-02T02:57:43.388Z,26.40
2023-03-02T03:00:12.223Z,26.47
2023-03-02T03:02:43.646Z,26.37
2023-03-02T03:05:14.542Z,26.43
2023-03-02T03:07:43.507Z,25.53
2023-03-02T03:10:19.466Z,27.73
2023-03-02T03:12:46.611Z,24.67
2023-03-02T03:15:13.360Z,27.63
2023-03-02T03:17:40.944Z,28.17
2023-03-02T03:20:09.294Z,28.87
2023-03-02T03:22:38.820Z,28.23
2023-03-02T03:25:08.115Z,28.10
2023-03-02T03:27:34.959Z,28.27
2023-03-02T03:30:02.087Z,28.13
2023-03-02T03:32:29.107Z,29.73
2023-03-02T03:34:58.087Z,29.37
2023-03-02T03:37:25.208Z,27.87
2023-03-02T03:39:52.017Z,28.63
2023-03-02T03:42:18.877Z,28.63
2023-03-02T03:44:48.302Z,29.50
2023-03-02T03:47:15.061Z,29.07
2023-03-02T03:49:41.844Z,29.97
2023-03-02T03:52:08.636Z,29.00
2023-03-02T03:54:35.435Z,28.83
2023-03-02T03:57:02.221Z,28.40
2023-03-02T03:59:31.217Z,29.90
2023-03-02T04:01:59.374Z,28.87
2023-03-02T04:04:31.191Z,30.07
2023-03-02T04:06:57.948Z,28.50
2023-03-02T04:09:28.244Z,28.93
2023-03-02T04:11:58.874Z,28.00
2023-03-02T04:14:25.773Z,26.87
2023-03-02T04:16:57.189Z,28.90
2023-03-02T04:19:24.222Z,26.50
2023-03-02T04:21:52.650Z,28.57
2023-03-02T04:24:20.220Z,28.87
2023-03-02T04:26:49.128Z,28.70
2023-03-02T04:29:16.224Z,27.83
2023-03-02T04:31:43.160Z,27.73
2023-03-02T04:34:10.093Z,26.53
2023-03-02T04:36:41.445Z,26.50
2023-03-02T04:39:08.309Z,27.40
2023-03-02T04:41:37.574Z,25.40
2023-03-02T04:44:04.559Z,26.23
2023-03-02T04:46:34.703Z,26.60
2023-03-02T04:49:04.404Z,27.33
2023-03-02T04:51:33.193Z,27.60
2023-03-02T04:54:02.119Z,28.30
2023-03-02T04:56:31.644Z,28.47
2023-03-02T04:59:01.848Z,28.73
2023-03-02T05:01:30.872Z,29.70
2023-03-02T05:03:57.671Z,30.10
2023-03-02T05:06:25.267Z,32.07
2023-03-02T05:08:52.933Z,32.57
2023-03-02T05:11:24.897Z,31.50
2023-03-02T05:13:53.247Z,32.43
2023-03-02T05:16:22.281Z,34.17
2023-03-02T05:18:51.697Z,34.73
2023-03-02T05:21:18.701Z,35.23
2023-03-02T05:23:50.243Z,34.17
2023-03-02T05:26:20.041Z,32.80
2023-03-02T05:28:46.879Z,31.53
2023-03-02T05:31:19.441Z,31.70
2023-03-02T05:33:48.772Z,31.77
2023-03-02T05:36:18.929Z,30.80
2023-03-02T05:38:46.301Z,30.33
2023-03-02T05:41:16.546Z,31.30
2023-03-02T05:43:45.577Z,31.47
2023-03-02T05:46:12.392Z,29.23
2023-03-02T05:48:42.567Z,29.30
2023-03-02T05:51:09.378Z,29.57
2023-03-02T05:53:38.319Z,30.23
2023-03-02T05:56:08.428Z,28.43
2023-03-02T05:58:37.744Z,28.33
2023-03-02T06:01:08.405Z,28.77
2023-03-02T06:03:37.324Z,30.03
2023-03-02T06:06:06.614Z,29.37
2023-03-02T06:08:41.008Z,28.33
2023-03-02T06:11:08.319Z,27.93
2023-03-02T06:13:35.188Z,30.43
2023-03-02T06:16:04.120Z,29.13
2023-03-02T06:18:33.192Z,29.43
2023-03-02T06:21:02.627Z,27.80
2023-03-02T06:23:31.622Z,28.83
2023-03-02T06:25:59.058Z,29.20
2023-03-02T06:28:26.072Z,28.87
2023-03-02T06:30:52.856Z,29.33
2023-03-02T06:33:21.230Z,29.07
2023-03-02T06:35:48.417Z,29.60
2023-03-02T06:38:17.441Z,29.57
2023-03-02T06:40:44.296Z,28.50
2023-03-02T06:43:11.282Z,29.27
2023-03-02T06:45:38.317Z,29.83
2023-03-02T06:48:05.455Z,28.50
2023-03-02T06:50:32.450Z,29.07
2023-03-02T06:52:59.315Z,29.27
2023-03-02T06:55:30.794Z,29.30
2023-03-02T06:57:57.658Z,28.43
2023-03-02T07:00:28.092Z,29.63
2023-03-02T07:02:58.053Z,28.67
2023-03-02T07:05:27.258Z,28.80
2023-03-02T07:07:54.035Z,29.00
2023-03-02T07:10:23.059Z,28.33
2023-03-02T07:12:52.786Z,28.33
2023-03-02T07:15:22.358Z,28.03
2023-03-02T07:17:49.132Z,30.07
2023-03-02T07:20:19.820Z,28.93
2023-03-02T07:22:49.630Z,28.80
2023-03-02T07:25:16.543Z,29.43
2023-03-02T07:27:43.328Z,30.37
2023-03-02T07:30:10.828Z,29.07
2023-03-02T07:32:37.851Z,28.40
2023-03-02T07:35:05.182Z,29.63
2023-03-02T07:37:31.949Z,31.70
2023-03-02T07:40:01.201Z,29.73
2023-03-02T07:42:30.492Z,31.53
2023-03-02T07:44:57.276Z,30.77
2023-03-02T07:47:24.080Z,29.90
2023-03-02T07:49:53.047Z,31.13
2023-03-02T07:52:19.822Z,30.33
2023-03-02T07:54:46.572Z,29.20
2023-03-02T07:57:16.257Z,30.10
2023-03-02T07:59:43.532Z,30.13
2023-03-02T08:02:12.866Z,29.73
2023-03-02T08:04:44.422Z,31.00
2023-03-02T08:07:11.218Z,29.50
2023-03-02T08:09:43.222Z,29.53
2023-03-02T08:12:10.103Z,29.33
2023-03-02T08:14:37.453Z,28.23
2023-03-02T08:17:05.503Z,28.33
2023-03-02T08:19:34.866Z,29.23
2023-03-02T08:22:02.292Z,27.50
2023-03-02T08:24:29.098Z,27.37
2023-03-02T08:26:56.041Z,25.30
2023-03-02T08:29:24.533Z,23.53
2023-03-02T08:31:53.613Z,20.13
2023-03-02T08:34:20.475Z,20.00
2023-03-02T08:36:47.311Z,19.30
2023-03-02T08:39:14.177Z,18.90
2023-03-02T08:41:45.698Z,18.57
2023-03-02T08:44:14.693Z,16.70
2023-03-02T08:46:44.028Z,16.27
2023-03-02T08:49:10.851Z,23.67
2023-03-02T08:51:37.633Z,25.40
2023-03-02T08:54:04.560Z,26.03
2023-03-02T08:56:33.864Z,27.07
2023-03-02T08:59:05.547Z,26.37
2023-03-02T09:01:34.060Z,28.27
2023-03-02T09:04:01.383Z,26.27
2023-03-02T09:06:28.887Z,26.87
2023-03-02T09:08:55.826Z,26.77
2023-03-02T09:11:22.581Z,26.57
2023-03-02T09:13:49.369Z,25.77
2023-03-02T09:16:20.273Z,27.13
2023-03-02T09:18:53.177Z,26.20
2023-03-02T09:21:22.578Z,28.07
2023-03-02T09:23:53.738Z,26.93
2023-03-02T09:26:20.694Z,27.23
2023-03-02T09:28:52.973Z,26.23
2023-03-02T09:31:20.018Z,24.87
2023-03-02T09:33:46.840Z,23.13
2023-03-02T09:36:18.868Z,19.37
2023-03-02T09:38:45.752Z,14.80
2023-03-02T09:41:21.920Z,14.37
2023-03-02T09:43:51.046Z,13.67
2023-03-02T09:46:26.989Z,13.83
2023-03-02T09:49:06.330Z,12.47
2023-03-02T09:51:39.927Z,12.30
2023-03-02T09:54:14.083Z,13.80
2023-03-02T09:56:46.433Z,13.70
2023-03-02T09:59:24.491Z,13.23
2023-03-02T10:02:18.470Z,14.53
2023-03-02T10:04:47.370Z,13.37
2023-03-02T10:07:16.586Z,15.97
2023-03-02T10:09:45.578Z,14.43
2023-03-02T10:12:21.658Z,13.57
2023-03-02T10:15:18.480Z,14.97
2023-03-02T10:18:00.438Z,13.67
2023-03-02T10:20:52.983Z,13.83
2023-03-02T10:23:19.764Z,13.47
2023-03-02T10:25:58.374Z,12.57
2023-03-02T10:28:31.911Z,12.23
2023-03-02T10:31:12.439Z,12.67
2023-03-02T10:33:39.693Z,11.87
2023-03-02T10:36:11.612Z,10.73
2023-03-02T10:38:43.171Z,10.60
2023-03-02T10:41:10.739Z,10.73
2023-03-02T10:43:42.826Z,9.27
2023-03-02T10:46:10.566Z,9.73
2023-03-02T10:48:50.491Z,8.00
2023-03-02T10:51:23.456Z,8.07
2023-03-02T10:53:50.298Z,7.50
2023-03-02T10:56:21.035Z,6.77
2023-03-02T10:58:47.881Z,5.87
2023-03-02T11:01:18.570Z,6.03
2023-03-02T11:04:03.332Z,5.47
2023-03-02T11:06:33.689Z,5.27
2023-03-02T11:09:06.473Z,4.80
2023-03-02T11:11:38.052Z,5.60
2023-03-02T11:14:09.569Z,5.10
2023-03-02T11:16:36.431Z,5.10
2023-03-02T11:19:35.868Z,5.63
2023-03-02T11:22:26.609Z,6.00
2023-03-02T11:24:55.164Z,6.20
2023-03-02T11:27:25.332Z,6.43
2023-03-02T11:30:18.542Z,7.23
2023-03-02T11:32:51.942Z,7.10
2023-03-02T11:35:27.809Z,6.80
2023-03-02T11:37:58.207Z,6.23
2023-03-02T11:40:47.246Z,6.40
2023-03-02T11:43:14.243Z,8.73
2023-03-02T11:45:48.686Z,7.27
2023-03-02T11:48:25.468Z,7.37
2023-03-02T11:50:55.008Z,6.37
2023-03-02T11:53:21.824Z,7.47
2023-03-02T11:55:51.150Z,7.90
2023-03-02T11:58:25.420Z,7.10
2023-03-02T12:00:54.509Z,7.60
2023-03-02T12:03:28.429Z,8.20
2023-03-02T12:06:01.101Z,8.23
2023-03-02T12:08:35.503Z,8.93
2023-03-02T12:11:17.629Z,8.83
2023-03-02T12:14:25.262Z,9.20
2023-03-02T12:16:52.263Z,9.00
2023-03-02T12:19:29.305Z,9.60
2023-03-02T12:22:02.192Z,9.67
2023-03-02T12:24:32.853Z,9.60
2023-03-02T12:27:25.810Z,9.13
2023-03-02T12:30:10.532Z,9.07
2023-03-02T12:32:37.548Z,9.50
2023-03-02T12:35:13.386Z,9.47
2023-03-02T12:38:21.744Z,9.53
2023-03-02T12:41:32.735Z,9.30
2023-03-02T12:44:14.373Z,10.27
2023-03-02T12:46:45.045Z,10.23
2023-03-02T12:49:35.595Z,9.87
2023-03-02T12:52:04.041Z,9.87
2023-03-02T12:54:32.518Z,10.03
2023-03-02T12:57:09.002Z,9.50
2023-03-02T12:59:38.376Z,9.80
2023-03-02T13:02:22.064Z,10.67
2023-03-02T13:05:03.515Z,11.60
2023-03-02T13:07:36.570Z,11.10
2023-03-02T13:10:09.079Z,10.83
2023-03-02T13:12:37.558Z,11.60
2023-03-02T13:15:12.039Z,11.47
2023-03-02T13:17:41.030Z,11.47
2023-03-02T13:20:08.414Z,11.30
2023-03-02T13:22:35.210Z,11.20
2023-03-02T13:25:03.844Z,11.77
2023-03-02T13:27:31.054Z,11.67
2023-03-02T13:30:11.644Z,10.87
2023-03-02T13:32:44.151Z,11.10
2023-03-02T13:35:24.420Z,10.60
2023-03-02T13:37:58.426Z,10.97
2023-03-02T13:40:31.281Z,12.03
2023-03-02T13:42:58.208Z,11.70
2023-03-02T13:45:26.202Z,12.00
2023-03-02T13:47:53.712Z,12.13
2023-03-02T13:50:28.332Z,12.33
2023-03-02T13:53:01.605Z,12.13
2023-03-02T13:55:33.006Z,11.43
2023-03-02T13:58:01.902Z,12.03
2023-03-02T14:00:35.325Z,11.53
2023-03-02T14:03:04.692Z,12.40
2023-03-02T14:05:33.549Z,12.13
2023-03-02T14:08:00.834Z,11.83
2023-03-02T14:10:32.216Z,12.63
2023-03-02T14:13:06.171Z,13.17
2023-03-02T14:15:42.686Z,13.00
2023-03-02T14:18:35.444Z,11.23
2023-03-02T14:21:02.281Z,12.53
2023-03-02T14:23:29.197Z,13.50
2023-03-02T14:26:00.638Z,12.50
2023-03-02T14:28:35.684Z,13.40
2023-03-02T14:31:02.511Z,13.37
2023-03-02T14:33:29.362Z,13.00
2023-03-02T14:35:57.124Z,13.50
2023-03-02T14:38:24.556Z,12.77
2023-03-02T14:40:51.421Z,14.00
2023-03-02T14:43:18.715Z,12.57
2023-03-02T14:45:45.778Z,12.50
2023-03-02T14:48:12.649Z,12.73
2023-03-02T14:50:45.571Z,13.53
2023-03-02T14:53:17.643Z,13.80
2023-03-02T14:55:44.448Z,12.77
2023-03-02T14:58:17.003Z,13.23
2023-03-02T15:00:44.037Z,12.50
2023-03-02T15:03:15.788Z,12.27
2023-03-02T15:05:51.727Z,12.57
2023-03-02T15:08:25.943Z,13.00
2023-03-02T15:10:55.383Z,13.47
2023-03-02T15:13:22.223Z,14.20
2023-03-02T15:15:52.797Z,13.27
2023-03-02T15:18:22.272Z,13.77
2023-03-02T15:20:49.096Z,12.97
2023-03-02T15:23:15.842Z,14.27
2023-03-02T15:25:43.129Z,13.07
2023-03-02T15:28:12.227Z,14.10
2023-03-02T15:30:39.132Z,14.13
2023-03-02T15:33:08.483Z,13.97
2023-03-02T15:35:37.960Z,13.47
2023-03-02T15:38:04.919Z,13.07
2023-03-02T15:40:34.262Z,13.03
2023-03-02T15:43:03.532Z,12.10
2023-03-02T15:45:30.359Z,13.60
2023-03-02T15:47:57.571Z,12.33
2023-03-02T15:50:26.561Z,13.73
2023-03-02T15:52:53.383Z,13.30
2023-03-02T15:55:22.616Z,12.70
2023-03-02T15:57:49.466Z,13.67
2023-03-02T16:00:21.579Z,12.87
2023-03-02T16:02:49.738Z,12.97
2023-03-02T16:05:19.171Z,12.13
2023-03-02T16:07:45.974Z,13.33
2023-03-02T16:10:16.541Z,13.00
2023-03-02T16:12:45.879Z,14.40
2023-03-02T16:15:14.776Z,15.30
2023-03-02T16:17:44.141Z,13.87
2023-03-02T16:20:11.624Z,13.47
2023-03-02T16:22:40.551Z,13.40
2023-03-02T16:25:09.938Z,13.83
2023-03-02T16:27:41.175Z,13.60
2023-03-02T16:30:08.724Z,14.30
2023-03-02T16:32:35.610Z,14.17
2023-03-02T16:35:02.467Z,14.23
2023-03-02T16:37:32.060Z,13.03
2023-03-02T16:39:58.923Z,13.87
2023-03-02T16:42:30.546Z,14.10
2023-03-02T16:44:57.296Z,14.13
2023-03-02T16:47:24.091Z,13.47
2023-03-02T16:49:50.936Z,15.10
2023-03-02T16:52:18.494Z,15.13
2023-03-02T16:54:45.369Z,14.47
2023-03-02T16:57:14.350Z,14.13
2023-03-02T16:59:41.193Z,15.40
2023-03-02T17:02:10.199Z,14.77
2023-03-02T17:04:37.374Z,15.73
2023-03-02T17:07:08.926Z,14.73
2023-03-02T17:09:36.244Z,15.10
2023-03-02T17:12:03.581Z,17.30
2023-03-02T17:14:30.405Z,16.23
2023-03-02T17:16:57.181Z,16.10
2023-03-02T17:19:24.552Z,16.40
2023-03-02T17:21:53.426Z,16.37
2023-03-02T17:24:20.185Z,17.37
2023-03-02T17:26:47.472Z,18.10
2023-03-02T17:29:14.240Z,17.50
2023-03-02T17:31:41.167Z,17.80
2023-03-02T17:34:07.934Z,18.20
2023-03-02T17:36:37.072Z,19.13
2023-03-02T17:39:04.249Z,18.50
2023-03-02T17:41:34.583Z,19.00
2023-03-02T17:44:02.060Z,18.33
2023-03-02T17:46:29.060Z,19.57
2023-03-02T17:48:59.504Z,20.37
2023-03-02T17:51:28.987Z,20.27
2023-03-02T17:53:55.933Z,20.50
2023-03-02T17:56:26.005Z,21.60
2023-03-02T17:58:56.311Z,20.83
2023-03-02T18:01:23.316Z,24.07
2023-03-02T18:03:50.284Z,22.27
2023-03-02T18:06:20.779Z,23.67
2023-03-02T18:08:48.803Z,25.13
2023-03-02T18:11:19.797Z,25.60
2023-03-02T18:13:48.936Z,26.63
2023-03-02T18:16:15.818Z,26.00
2023-03-02T18:18:44.969Z,27.60
2023-03-02T18:21:13.987Z,26.53
2023-03-02T18:23:42.057Z,26.87
2023-03-02T18:26:08.906Z,28.90
2023-03-02T18:28:35.681Z,29.07
2023-03-02T18:31:04.613Z,28.67
2023-03-02T18:33:31.628Z,38.10
2023-03-02T18:35:59.177Z,32.10
2023-03-02T18:38:30.922Z,32.07
2023-03-02T18:41:06.338Z,31.73
2023-03-02T18:43:36.855Z,35.20
2023-03-02T18:46:04.338Z,34.13
2023-03-02T18:48:31.901Z,35.07
2023-03-02T18:51:03.810Z,33.63
2023-03-02T18:53:33.013Z,35.20
2023-03-02T18:56:02.300Z,34.63
2023-03-02T18:58:34.111Z,35.63
2023-03-02T19:01:01.220Z,33.50
2023-03-02T19:03:28.095Z,33.57
2023-03-02T19:05:58.251Z,34.23
2023-03-02T19:08:25.210Z,34.33
2023-03-02T19:10:54.635Z,34.73
2023-03-02T19:13:23.936Z,35.10
2023-03-02T19:15:51.577Z,33.47
2023-03-02T19:18:21.982Z,34.57
2023-03-02T19:20:51.820Z,34.80
2023-03-02T19:23:18.681Z,34.27
2023-03-02T19:25:47.707Z,35.27
2023-03-02T19:28:14.610Z,34.47
2023-03-02T19:30:45.987Z,34.63
2023-03-02T19:33:12.871Z,33.83
2023-03-02T19:35:39.708Z,33.57
2023-03-02T19:38:06.715Z,33.73
2023-03-02T19:40:34.514Z,34.13
2023-03-02T19:43:02.660Z,32.70
2023-03-02T19:45:32.391Z,33.07
2023-03-02T19:48:05.791Z,33.77
2023-03-02T19:50:32.917Z,33.10
2023-03-02T19:53:02.180Z,31.70
2023-03-02T19:55:31.946Z,33.87
2023-03-02T19:58:02.549Z,33.37
2023-03-02T20:00:35.402Z,36.17
2023-03-02T20:03:02.392Z,37.80
2023-03-02T20:05:31.463Z,38.07
2023-03-02T20:07:58.255Z,39.07
2023-03-02T20:10:30.258Z,43.37
2023-03-02T20:12:59.603Z,41.50
2023-03-02T20:15:30.446Z,42.70
2023-03-02T20:18:02.354Z,44.30
2023-03-02T20:20:36.769Z,46.13
2023-03-02T20:23:04.651Z,45.20
2023-03-02T20:25:34.256Z,49.17
2023-03-02T20:28:05.478Z,49.50
2023-03-02T20:30:47.663Z,49.67
2023-03-02T20:33:17.152Z,46.73
2023-03-02T20:35:47.043Z,48.43
2023-03-02T20:38:17.510Z,46.00
2023-03-02T20:40:46.635Z,49.07
2023-03-02T20:43:13.399Z,48.93
2023-03-02T20:45:40.522Z,49.53
2023-03-02T20:48:09.832Z,51.37
2023-03-02T20:50:36.800Z,50.53
2023-03-02T20:53:03.987Z,50.33
2023-03-02T20:55:33.356Z,50.80
2023-03-02T20:58:01.200Z,50.67
2023-03-02T21:00:29.118Z,50.57
2023-03-02T21:02:57.182Z,50.47
2023-03-02T21:05:24.560Z,50.90
2023-03-02T21:07:51.617Z,52.97
2023-03-02T21:10:24.343Z,53.43
2023-03-02T21:12:51.313Z,53.47
2023-03-02T21:15:20.154Z,50.83
2023-03-02T21:17:47.171Z,52.50
2023-03-02T21:20:18.434Z,58.07
2023-03-02T21:22:45.759Z,56.47
2023-03-02T21:25:12.637Z,61.90
2023-03-02T21:27:40.215Z,60.77
2023-03-02T21:30:12.941Z,65.70
2023-03-02T21:32:41.283Z,63.30
2023-03-02T21:35:10.527Z,66.10
2023-03-02T21:37:37.390Z,66.53
2023-03-02T21:40:05.133Z,65.37
2023-03-02T21:42:34.132Z,68.37
2023-03-02T21:45:03.419Z,70.20
2023-03-02T21:47:30.198Z,70.27
2023-03-02T21:49:59.460Z,69.33
2023-03-02T21:52:28.689Z,69.40
2023-03-02T21:54:55.534Z,67.20
2023-03-02T21:57:24.582Z,66.53
2023-03-02T21:59:54.719Z,71.17
2023-03-02T22:02:23.678Z,72.33
2023-03-02T22:04:50.459Z,72.53
2023-03-02T22:07:17.261Z,73.43
2023-03-02T22:09:44.061Z,75.20
2023-03-02T22:12:16.216Z,73.50
2023-03-02T22:14:45.473Z,72.37
2023-03-02T22:17:19.042Z,71.30
2023-03-02T22:19:45.988Z,72.13
2023-03-02T22:22:31.121Z,70.73
2023-03-02T22:25:00.105Z,72.33
2023-03-02T22:27:34.730Z,70.90
2023-03-02T22:30:01.686Z,70.40
2023-03-02T22:32:29.437Z,72.00
2023-03-02T22:34:57.669Z,72.87
2023-03-02T22:37:33.218Z,74.53
2023-03-02T22:40:25.856Z,72.47
2023-03-02T22:42:56.693Z,70.63
2023-03-02T22:45:23.561Z,71.23
2023-03-02T22:47:52.589Z,71.83
2023-03-02T22:50:19.391Z,69.73
2023-03-02T22:52:46.142Z,71.60
2023-03-02T22:55:33.441Z,69.40
2023-03-02T22:58:07.296Z,69.50
2023-03-02T23:00:35.740Z,66.17
2023-03-02T23:03:02.598Z,67.50
2023-03-02T23:05:33.898Z,65.80
2023-03-02T23:08:15.405Z,66.27
2023-03-02T23:10:42.528Z,65.87
2023-03-02T23:13:14.315Z,66.00
2023-03-02T23:15:41.627Z,66.83
2023-03-02T23:18:22.143Z,67.77
2023-03-02T23:20:54.096Z,60.17
2023-03-02T23:23:21.883Z,63.53
2023-03-02T23:25:48.766Z,61.57
2023-03-02T23:28:15.541Z,63.43
2023-03-02T23:30:42.350Z,61.17
2023-03-02T23:33:11.603Z,60.07
2023-03-02T23:35:38.547Z,59.57
2023-03-02T23:38:07.757Z,59.37
2023-03-02T23:40:35.272Z,58.47
2023-03-02T23:43:02.336Z,58.20
2023-03-02T23:45:29.149Z,58.87
2023-03-02T23:47:57.661Z,58.23
2023-03-02T23:50:24.621Z,56.17
2023-03-02T23:52:51.390Z,55.73
2023-03-02T23:55:18.588Z,54.57
2023-03-02T23:57:45.369Z,53.13
